Time;durP1;ratioP1;P1;durP2;ratioP2;P2;SDS_P1;SDS_P2;PMS_P1;PMS_P2;Temp;Humidity;BMP_temperature;BMP_pressure;BME280_temperature;BME280_humidity;BME280_pressure;Samples;Min_cycle;Max_cycle;Signal;HPM_P1;HPM_P2
2022/01/13 00:01:03;;;;;;;10.88;7.28;;;;;;;;;;5073718;28;20546;-70
2022/01/13 00:03:30;;;;;;;9.95;7.28;;;;;;;;;;5073295;28;20072;-70
2022/01/13 00:05:57;;;;;;;10.38;7.78;;;;;;;;;;5073533;28;20062;-70
2022/01/13 00:08:24;;;;;;;15.25;8.88;;;;;;;;;;5055073;28;20052;-70
2022/01/13 00:10:51;;;;;;;11.48;8.15;;;;;;;;;;5055522;28;20127;-71
2022/01/13 00:13:24;;;;;;;9.38;7.28;;;;;;;;;;5055937;28;20048;-70
2022/01/13 00:16:23;;;;;;;9.32;7.40;;;;;;;;;;5056244;28;20053;-70
2022/01/13 00:18:41;;;;;;;9.48;8.13;;;;;;;;;;5058260;28;20068;-70
2022/01/13 00:21:17;;;;;;;10.52;9.40;;;;;;;;;;5055794;28;20571;-70
2022/01/13 00:23:50;;;;;;;10.57;6.82;;;;;;;;;;5056792;28;20053;-70
2022/01/13 00:26:23;;;;;;;10.52;7.97;;;;;;;;;;5073286;28;20052;-70
2022/01/13 00:28:53;;;;;;;9.48;8.05;;;;;;;;;;5038960;28;20968;-72
2022/01/13 00:31:27;;;;;;;9.82;7.10;;;;;;;;;;5082406;28;20040;-71
2022/01/13 00:33:57;;;;;;;17.42;9.00;;;;;;;;;;5055093;28;20056;-70
2022/01/13 00:36:26;;;;;;;8.63;7.32;;;;;;;;;;5055165;28;20508;-72
2022/01/13 00:38:54;;;;;;;16.20;10.10;;;;;;;;;;5055214;28;20071;-71
2022/01/13 00:41:23;;;;;;;13.70;9.20;;;;;;;;;;5068239;28;20099;-71
2022/01/13 00:43:50;;;;;;;11.77;7.88;;;;;;;;;;5035423;28;20041;-71
2022/01/13 00:46:25;;;;;;;13.05;9.00;;;;;;;;;;5035211;28;20056;-71
2022/01/13 00:48:54;;;;;;;8.82;6.47;;;;;;;;;;5036187;28;20049;-73
2022/01/13 00:51:22;;;;;;;10.88;8.45;;;;;;;;;;5035341;28;20405;-72
2022/01/13 00:53:51;;;;;;;11.10;7.53;;;;;;;;;;5035215;28;20041;-71
2022/01/13 00:56:18;;;;;;;9.65;6.93;;;;;;;;;;5024427;28;20523;-72
2022/01/13 00:58:45;;;;;;;14.57;8.65;;;;;;;;;;5087995;28;20052;-71
2022/01/13 01:01:12;;;;;;;13.63;8.52;;;;;;;;;;5087975;28;20087;-72
2022/01/13 01:03:40;;;;;;;17.50;7.45;;;;;;;;;;5072522;28;20052;-71
2022/01/13 01:06:07;;;;;;;12.65;8.27;;;;;;;;;;5072181;28;20040;-71
2022/01/13 01:08:34;;;;;;;10.50;8.68;;;;;;;;;;5054512;28;20048;-72
2022/01/13 01:11:03;;;;;;;9.27;7.43;;;;;;;;;;5071216;28;20048;-72
2022/01/13 01:13:33;;;;;;;8.63;7.70;;;;;;;;;;5055094;28;20040;-72
2022/01/13 01:16:04;;;;;;;8.80;6.53;;;;;;;;;;5054809;28;20064;-73
2022/01/13 01:31:39;;;;;;;12.95;7.85;;;;;;;;;;5071030;28;20047;-71
2022/01/13 01:36:33;;;;;;;9.55;8.00;;;;;;;;;;5054502;28;20048;-72
2022/01/13 01:39:00;;;;;;;12.32;7.28;;;;;;;;;;5065288;28;20053;-71
2022/01/13 01:41:27;;;;;;;8.00;7.20;;;;;;;;;;5049414;28;20036;-71
2022/01/13 01:44:00;;;;;;;8.30;7.30;;;;;;;;;;5054303;28;20515;-72
2022/01/13 01:46:34;;;;;;;9.13;7.35;;;;;;;;;;5071558;28;20128;-71
2022/01/13 01:49:04;;;;;;;8.00;6.95;;;;;;;;;;5072114;28;20060;-71
2022/01/13 01:51:32;;;;;;;11.18;8.27;;;;;;;;;;5054137;28;20048;-71
2022/01/13 01:53:59;;;;;;;13.52;7.93;;;;;;;;;;5053628;28;20504;-72
2022/01/13 01:56:25;;;;;;;11.57;8.27;;;;;;;;;;5053505;28;20051;-72
2022/01/13 01:58:55;;;;;;;10.65;7.63;;;;;;;;;;5053870;28;20043;-72
2022/01/13 02:01:22;;;;;;;11.93;7.78;;;;;;;;;;5057477;28;20143;-71
2022/01/13 02:03:49;;;;;;;14.82;7.88;;;;;;;;;;5058375;28;20048;-71
2022/01/13 02:06:17;;;;;;;7.38;6.68;;;;;;;;;;5057232;28;20052;-71
2022/01/13 02:08:44;;;;;;;8.35;7.25;;;;;;;;;;5057490;28;20135;-71
2022/01/13 02:11:11;;;;;;;8.70;6.95;;;;;;;;;;5056816;28;20047;-71
2022/01/13 02:13:46;;;;;;;9.90;7.03;;;;;;;;;;5074037;28;20040;-71
2022/01/13 02:19:18;;;;;;;13.00;7.38;;;;;;;;;;4993412;28;19921;-71
2022/01/13 02:21:45;;;;;;;10.00;7.97;;;;;;;;;;4976996;28;20057;-72
2022/01/13 02:24:12;;;;;;;8.57;7.50;;;;;;;;;;5025326;28;20463;-71
2022/01/13 02:26:39;;;;;;;10.30;7.25;;;;;;;;;;5036311;28;20056;-72
2022/01/13 02:29:06;;;;;;;10.77;8.20;;;;;;;;;;5033282;28;20072;-71
2022/01/13 02:31:33;;;;;;;9.23;8.00;;;;;;;;;;5033723;28;20235;-71
2022/01/13 02:34:00;;;;;;;11.63;8.32;;;;;;;;;;5034011;28;20053;-73
2022/01/13 02:36:30;;;;;;;12.05;8.90;;;;;;;;;;5066312;28;20045;-71
2022/01/13 02:38:59;;;;;;;8.45;7.55;;;;;;;;;;5053635;28;20055;-71
2022/01/13 02:41:26;;;;;;;9.07;7.50;;;;;;;;;;5069724;28;20049;-70
2022/01/13 02:43:55;;;;;;;11.32;8.13;;;;;;;;;;5071376;28;20606;-70
2022/01/13 02:49:11;;;;;;;13.05;8.20;;;;;;;;;;5085106;28;20102;-70
2022/01/13 02:51:41;;;;;;;10.57;7.68;;;;;;;;;;5086383;28;20051;-71
2022/01/13 02:54:09;;;;;;;12.27;8.45;;;;;;;;;;5086579;28;20056;-71
2022/01/13 02:56:36;;;;;;;15.15;10.18;;;;;;;;;;5070088;28;20045;-71
2022/01/13 02:59:05;;;;;;;11.13;8.18;;;;;;;;;;5049505;28;20135;-71
2022/01/13 03:01:33;;;;;;;12.27;8.30;;;;;;;;;;5053331;28;20564;-70
2022/01/13 03:04:05;;;;;;;12.90;8.73;;;;;;;;;;5086023;28;20105;-71
2022/01/13 03:06:36;;;;;;;15.45;9.43;;;;;;;;;;5085809;28;20052;-71
2022/01/13 03:09:05;;;;;;;10.18;7.47;;;;;;;;;;5085815;28;20048;-71
2022/01/13 03:11:38;;;;;;;9.60;8.38;;;;;;;;;;5069599;28;20052;-71
2022/01/13 03:14:08;;;;;;;9.70;8.25;;;;;;;;;;5054123;28;20055;-71
2022/01/13 03:16:36;;;;;;;9.90;8.65;;;;;;;;;;5080431;28;20075;-70
2022/01/13 03:19:03;;;;;;;12.77;8.57;;;;;;;;;;5049659;28;20049;-71
2022/01/13 03:21:30;;;;;;;12.45;9.07;;;;;;;;;;5052953;28;20068;-70
2022/01/13 03:23:57;;;;;;;12.13;9.25;;;;;;;;;;5053056;28;20072;-71
2022/01/13 03:26:24;;;;;;;12.10;8.18;;;;;;;;;;5070573;28;20044;-71
2022/01/13 03:28:54;;;;;;;10.43;8.38;;;;;;;;;;5052878;28;20672;-72
2022/01/13 03:31:23;;;;;;;8.00;7.20;;;;;;;;;;5052652;28;20052;-71
2022/01/13 03:33:51;;;;;;;11.77;8.05;;;;;;;;;;5054726;28;20122;-72
2022/01/13 03:36:18;;;;;;;15.20;7.85;;;;;;;;;;5074486;28;20052;-72
2022/01/13 03:38:45;;;;;;;11.13;6.88;;;;;;;;;;5056071;28;20051;-71
2022/01/13 03:41:13;;;;;;;8.52;7.00;;;;;;;;;;5056655;28;20041;-71
2022/01/13 03:43:40;;;;;;;7.93;7.20;;;;;;;;;;5056533;28;20053;-71
2022/01/13 03:46:07;;;;;;;9.20;7.78;;;;;;;;;;5073794;28;20071;-71
2022/01/13 03:48:38;;;;;;;9.00;6.13;;;;;;;;;;5056717;28;20049;-71
2022/01/13 03:51:05;;;;;;;7.40;6.30;;;;;;;;;;5073757;28;20052;-71
2022/01/13 03:53:38;;;;;;;8.13;6.63;;;;;;;;;;5072210;28;20119;-70
2022/01/13 03:56:35;;;;;;;9.98;7.13;;;;;;;;;;5073581;28;20051;-70
2022/01/13 03:59:20;;;;;;;8.02;6.82;;;;;;;;;;5074222;28;20052;-71
2022/01/13 04:02:07;;;;;;;8.25;6.43;;;;;;;;;;5074164;28;20056;-70
2022/01/13 04:04:43;;;;;;;9.90;7.03;;;;;;;;;;5055767;28;20062;-70
2022/01/13 04:07:30;;;;;;;11.43;7.68;;;;;;;;;;5089056;28;20047;-70
2022/01/13 04:09:57;;;;;;;8.70;7.80;;;;;;;;;;5073326;28;20052;-71
2022/01/13 04:12:26;;;;;;;8.52;7.00;;;;;;;;;;5073704;28;20053;-71
2022/01/13 04:15:01;;;;;;;11.73;8.00;;;;;;;;;;5073968;28;20048;-71
2022/01/13 04:17:28;;;;;;;9.80;8.23;;;;;;;;;;5044639;28;20048;-70
2022/01/13 04:19:56;;;;;;;12.13;7.53;;;;;;;;;;5073398;28;20045;-71
2022/01/13 04:22:25;;;;;;;8.52;7.72;;;;;;;;;;5055005;28;20053;-71
2022/01/13 04:24:53;;;;;;;9.40;8.02;;;;;;;;;;5088708;28;20048;-70
2022/01/13 04:27:31;;;;;;;8.98;8.07;;;;;;;;;;5069602;28;20056;-70
2022/01/13 04:32:43;;;;;;;8.73;7.45;;;;;;;;;;5058063;28;20064;-70
2022/01/13 04:35:17;;;;;;;11.63;8.90;;;;;;;;;;5054909;28;20044;-69
2022/01/13 04:37:57;;;;;;;7.70;7.00;;;;;;;;;;5071931;28;20052;-72
2022/01/13 04:40:24;;;;;;;8.38;7.53;;;;;;;;;;5063538;28;20114;-74
2022/01/13 04:42:54;;;;;;;10.43;8.02;;;;;;;;;;5041860;28;20127;-72
2022/01/13 04:45:22;;;;;;;10.15;7.20;;;;;;;;;;5054908;28;20485;-70
2022/01/13 04:47:52;;;;;;;7.53;6.35;;;;;;;;;;5055723;28;20084;-69
2022/01/13 04:50:22;;;;;;;6.93;6.22;;;;;;;;;;5053127;28;20571;-70
2022/01/13 04:52:49;;;;;;;8.13;6.18;;;;;;;;;;5036204;28;20053;-72
2022/01/13 04:55:23;;;;;;;7.38;6.03;;;;;;;;;;5019282;28;20064;-72
2022/01/13 04:57:51;;;;;;;7.85;6.38;;;;;;;;;;5055906;28;20136;-72
2022/01/13 05:00:19;;;;;;;10.00;7.65;;;;;;;;;;5053488;28;20570;-72
2022/01/13 05:02:46;;;;;;;14.38;8.20;;;;;;;;;;5051865;28;20418;-73
2022/01/13 05:05:14;;;;;;;9.40;7.45;;;;;;;;;;5054075;28;20048;-72
2022/01/13 05:07:41;;;;;;;9.20;7.28;;;;;;;;;;5053991;28;20547;-74
2022/01/13 05:10:09;;;;;;;13.30;8.18;;;;;;;;;;5054769;28;20135;-73
2022/01/13 05:12:45;;;;;;;13.45;8.65;;;;;;;;;;5087896;28;20044;-72
2022/01/13 05:15:18;;;;;;;10.10;8.70;;;;;;;;;;5069824;28;20052;-72
2022/01/13 05:18:07;;;;;;;13.23;8.48;;;;;;;;;;5072246;28;20064;-72
2022/01/13 05:20:39;;;;;;;12.25;7.82;;;;;;;;;;5057428;28;20055;-72
2022/01/13 05:23:08;;;;;;;10.15;8.88;;;;;;;;;;5055992;28;20044;-72
2022/01/13 05:25:35;;;;;;;9.88;7.50;;;;;;;;;;5081256;28;20048;-72
2022/01/13 05:28:02;;;;;;;13.43;9.25;;;;;;;;;;5051475;28;20044;-72
2022/01/13 05:30:29;;;;;;;14.52;8.38;;;;;;;;;;5041455;28;20040;-71
2022/01/13 05:32:56;;;;;;;12.88;7.88;;;;;;;;;;5052290;28;20052;-72
2022/01/13 05:35:24;;;;;;;12.93;8.80;;;;;;;;;;5034370;28;20053;-71
2022/01/13 05:37:52;;;;;;;7.80;7.07;;;;;;;;;;5018246;28;20051;-71
2022/01/13 05:40:19;;;;;;;9.50;6.25;;;;;;;;;;5034146;28;20557;-72
2022/01/13 05:42:46;;;;;;;9.27;6.65;;;;;;;;;;5034435;28;20100;-71
2022/01/13 05:45:18;;;;;;;11.38;7.47;;;;;;;;;;5051922;28;20465;-72
2022/01/13 05:47:48;;;;;;;9.35;6.68;;;;;;;;;;5034707;28;20584;-72
2022/01/13 05:50:17;;;;;;;8.68;7.22;;;;;;;;;;5018278;28;20485;-71
2022/01/13 05:52:44;;;;;;;9.43;7.38;;;;;;;;;;5051547;28;20525;-72
2022/01/13 05:55:11;;;;;;;10.55;6.18;;;;;;;;;;5034597;28;20045;-70
2022/01/13 05:57:38;;;;;;;11.80;8.20;;;;;;;;;;5017180;28;20056;-70
2022/01/13 06:00:07;;;;;;;11.48;9.05;;;;;;;;;;5033808;28;20045;-70
2022/01/13 06:02:40;;;;;;;;;;;;;;;;;;5051681;28;20072;-70
2022/01/13 06:05:08;;;;;;;14.20;8.77;;;;;;;;;;5033589;28;19960;-70
2022/01/13 06:07:36;;;;;;;13.57;9.25;;;;;;;;;;5034007;28;20127;-70
2022/01/13 06:10:04;;;;;;;11.13;7.25;;;;;;;;;;5051525;28;20059;-70
2022/01/13 06:12:34;;;;;;;14.07;9.35;;;;;;;;;;5033591;28;20059;-77
2022/01/13 06:15:12;;;;;;;12.15;9.70;;;;;;;;;;5041274;28;20122;-74
2022/01/13 06:17:41;;;;;;;12.27;9.65;;;;;;;;;;5047121;28;20048;-75
2022/01/13 06:20:10;;;;;;;14.23;9.27;;;;;;;;;;5022502;28;20131;-74
2022/01/13 06:22:38;;;;;;;8.73;7.80;;;;;;;;;;5051389;28;20053;-74
2022/01/13 06:25:07;;;;;;;11.63;7.82;;;;;;;;;;5017385;28;20114;-75
2022/01/13 06:27:35;;;;;;;9.52;8.18;;;;;;;;;;5035144;28;20515;-74
2022/01/13 06:30:10;;;;;;;9.93;8.65;;;;;;;;;;5070458;28;20123;-75
2022/01/13 06:32:38;;;;;;;11.88;8.38;;;;;;;;;;5036172;28;20143;-74
2022/01/13 06:35:05;;;;;;;16.10;7.28;;;;;;;;;;5085753;28;20037;-74
2022/01/13 06:37:33;;;;;;;8.85;7.78;;;;;;;;;;5035244;28;20056;-74
2022/01/13 06:40:02;;;;;;;11.23;7.65;;;;;;;;;;5052828;28;20045;-75
2022/01/13 06:42:29;;;;;;;11.85;9.30;;;;;;;;;;5070696;28;20128;-74
2022/01/13 06:44:56;;;;;;;16.83;8.35;;;;;;;;;;5062262;28;20045;-74
2022/01/13 06:47:24;;;;;;;13.57;9.07;;;;;;;;;;5069880;28;20078;-74
2022/01/13 06:49:51;;;;;;;11.63;9.77;;;;;;;;;;5069606;28;20040;-76
2022/01/13 06:52:18;;;;;;;15.90;8.05;;;;;;;;;;5065914;28;20053;-77
2022/01/13 06:54:45;;;;;;;16.98;8.65;;;;;;;;;;5062448;28;20081;-75
2022/01/13 06:57:12;;;;;;;11.93;7.93;;;;;;;;;;5065976;28;20477;-74
2022/01/13 06:59:39;;;;;;;17.20;10.40;;;;;;;;;;5039476;28;20045;-75
2022/01/13 07:02:06;;;;;;;11.38;9.40;;;;;;;;;;5049837;28;20037;-75
2022/01/13 07:04:34;;;;;;;12.55;9.27;;;;;;;;;;5064056;28;20040;-73
2022/01/13 07:07:01;;;;;;;11.80;10.23;;;;;;;;;;5051796;28;20067;-77
2022/01/13 07:09:28;;;;;;;11.65;8.52;;;;;;;;;;5069754;28;20045;-76
2022/01/13 07:11:55;;;;;;;12.95;9.30;;;;;;;;;;5080853;28;20089;-73
2022/01/13 07:14:22;;;;;;;15.02;8.13;;;;;;;;;;5079674;28;20067;-74
2022/01/13 07:16:50;;;;;;;10.35;8.98;;;;;;;;;;5049064;28;20412;-77
2022/01/13 07:19:17;;;;;;;28.55;8.75;;;;;;;;;;5071574;28;20127;-76
2022/01/13 07:21:45;;;;;;;13.75;8.93;;;;;;;;;;5047076;28;20053;-77
2022/01/13 07:24:12;;;;;;;14.85;8.52;;;;;;;;;;5046876;28;20057;-74
2022/01/13 07:26:39;;;;;;;8.60;7.60;;;;;;;;;;5066429;28;20052;-77
2022/01/13 07:29:07;;;;;;;8.48;7.47;;;;;;;;;;5062997;28;20406;-74
2022/01/13 07:31:38;;;;;;;41.53;34.25;;;;;;;;;;5047741;28;20535;-74
2022/01/13 07:34:06;;;;;;;11.98;9.52;;;;;;;;;;5059313;28;20076;-73
2022/01/13 07:36:34;;;;;;;27.60;15.82;;;;;;;;;;5037143;28;20060;-73
2022/01/13 07:39:02;;;;;;;18.10;9.85;;;;;;;;;;5066313;28;20047;-74
2022/01/13 07:41:29;;;;;;;21.35;13.73;;;;;;;;;;5055729;28;20048;-73
2022/01/13 07:43:56;;;;;;;12.10;9.20;;;;;;;;;;5055854;28;20211;-73
2022/01/13 07:46:24;;;;;;;15.80;9.85;;;;;;;;;;5055555;28;20045;-72
2022/01/13 07:48:52;;;;;;;16.92;9.65;;;;;;;;;;5053109;28;20059;-72
2022/01/13 07:51:19;;;;;;;14.57;9.25;;;;;;;;;;5051889;28;20037;-72
2022/01/13 07:53:46;;;;;;;114.75;55.97;;;;;;;;;;5042428;28;20523;-72
2022/01/13 07:56:13;;;;;;;158.60;70.85;;;;;;;;;;5056029;28;20048;-72
2022/01/13 07:58:41;;;;;;;238.40;108.53;;;;;;;;;;5072241;28;20044;-71
2022/01/13 08:01:08;;;;;;;53.22;27.02;;;;;;;;;;5041737;28;20497;-71
2022/01/13 08:03:36;;;;;;;54.83;28.13;;;;;;;;;;5042186;28;20147;-75
2022/01/13 08:06:04;;;;;;;19.00;13.27;;;;;;;;;;5036656;28;20045;-73
2022/01/13 08:08:32;;;;;;;18.90;11.88;;;;;;;;;;5036524;28;20114;-75
2022/01/13 08:10:59;;;;;;;18.38;12.23;;;;;;;;;;5054068;28;20131;-77
2022/01/13 08:13:26;;;;;;;17.17;11.55;;;;;;;;;;5050161;28;20048;-75
2022/01/13 08:15:58;;;;;;;26.05;10.68;;;;;;;;;;5050150;28;20044;-80
2022/01/13 08:21:10;;;;;;;20.92;11.75;;;;;;;;;;5025292;28;20045;-75
2022/01/13 08:23:37;;;;;;;19.65;11.40;;;;;;;;;;5052176;28;20052;-76
2022/01/13 08:26:04;;;;;;;16.83;9.43;;;;;;;;;;5055191;28;20385;-80
2022/01/13 08:28:31;;;;;;;20.30;10.95;;;;;;;;;;5073058;28;20044;-74
2022/01/13 08:30:59;;;;;;;15.85;9.45;;;;;;;;;;5046766;28;20402;-71
2022/01/13 08:33:26;;;;;;;20.08;10.73;;;;;;;;;;5054132;28;20151;-74
2022/01/13 08:35:53;;;;;;;24.73;11.00;;;;;;;;;;5053885;28;20052;-72
2022/01/13 08:38:22;;;;;;;24.70;11.30;;;;;;;;;;5043379;28;20493;-77
2022/01/13 08:40:54;;;;;;;18.25;9.50;;;;;;;;;;5035648;28;20049;-80
2022/01/13 08:43:22;;;;;;;33.95;11.45;;;;;;;;;;5034949;28;20052;-74
2022/01/13 08:45:49;;;;;;;17.25;9.82;;;;;;;;;;5053280;28;20099;-77
2022/01/13 08:48:16;;;;;;;18.75;9.90;;;;;;;;;;5053190;28;20064;-77
2022/01/13 08:50:45;;;;;;;23.48;9.73;;;;;;;;;;5026975;28;20048;-75
2022/01/13 08:53:15;;;;;;;14.82;9.85;;;;;;;;;;5074047;28;20502;-74
2022/01/13 08:55:42;;;;;;;17.58;9.38;;;;;;;;;;5052603;28;20044;-75
2022/01/13 08:58:09;;;;;;;20.33;12.15;;;;;;;;;;5047351;28;20052;-76
2022/01/13 09:00:37;;;;;;;14.77;9.95;;;;;;;;;;5046748;28;20650;-76
2022/01/13 09:03:07;;;;;;;15.20;10.43;;;;;;;;;;5037597;28;20587;-73
2022/01/13 09:05:36;;;;;;;10.88;8.63;;;;;;;;;;5071850;28;20040;-81
2022/01/13 09:08:07;;;;;;;17.38;10.38;;;;;;;;;;5070580;28;20059;-75
2022/01/13 09:10:34;;;;;;;13.55;9.60;;;;;;;;;;5055237;28;20075;-76
2022/01/13 09:13:02;;;;;;;13.05;10.18;;;;;;;;;;5086747;28;20052;-76
2022/01/13 09:15:35;;;;;;;15.85;9.23;;;;;;;;;;5071667;28;20040;-76
2022/01/13 09:18:14;;;;;;;10.48;8.00;;;;;;;;;;5046992;28;20045;-77
2022/01/13 09:20:42;;;;;;;9.23;8.10;;;;;;;;;;5049715;28;20127;-75
2022/01/13 09:23:09;;;;;;;13.50;8.98;;;;;;;;;;5034667;28;20107;-77
2022/01/13 09:25:36;;;;;;;18.88;9.15;;;;;;;;;;5017831;28;20049;-77
2022/01/13 09:28:06;;;;;;;11.98;9.63;;;;;;;;;;5075310;28;20057;-80
2022/01/13 09:30:34;;;;;;;14.23;8.88;;;;;;;;;;5042889;28;20073;-76
2022/01/13 09:33:01;;;;;;;12.73;9.10;;;;;;;;;;5065892;28;20052;-77
2022/01/13 09:35:28;;;;;;;11.45;9.75;;;;;;;;;;5053905;28;20128;-78
2022/01/13 09:37:56;;;;;;;15.50;9.57;;;;;;;;;;5054050;28;20098;-77
2022/01/13 09:40:24;;;;;;;18.33;9.05;;;;;;;;;;5087550;28;20068;-79
2022/01/13 09:42:52;;;;;;;12.82;9.32;;;;;;;;;;5087076;28;20083;-78
2022/01/13 09:45:19;;;;;;;10.63;8.23;;;;;;;;;;5054260;28;20047;-79
2022/01/13 09:47:48;;;;;;;12.00;8.05;;;;;;;;;;5042792;28;20577;-78
2022/01/13 09:50:18;;;;;;;16.33;9.63;;;;;;;;;;5045729;28;20535;-78
2022/01/13 09:52:45;;;;;;;12.38;9.35;;;;;;;;;;5056474;28;20126;-81
2022/01/13 09:55:14;;;;;;;12.82;8.38;;;;;;;;;;5035279;28;20048;-82
2022/01/13 09:57:46;;;;;;;13.55;11.15;;;;;;;;;;5053405;28;20117;-81
2022/01/13 10:00:16;;;;;;;24.23;12.10;;;;;;;;;;5052864;28;20041;-80
2022/01/13 10:02:43;;;;;;;16.30;10.13;;;;;;;;;;5048359;28;20045;-80
2022/01/13 10:05:11;;;;;;;13.05;9.95;;;;;;;;;;5066050;28;20420;-83
2022/01/13 10:07:43;;;;;;;11.75;9.13;;;;;;;;;;5045998;28;21087;-82
2022/01/13 10:10:22;;;;;;;14.23;10.05;;;;;;;;;;5050102;28;20040;-81
2022/01/13 10:12:59;;;;;;;15.93;11.50;;;;;;;;;;5035736;28;20102;-81
2022/01/13 10:18:12;;;;;;;14.23;10.90;;;;;;;;;;5060270;28;20493;-80
2022/01/13 10:20:39;;;;;;;17.67;10.98;;;;;;;;;;5053653;28;20074;-82
2022/01/13 10:23:06;;;;;;;22.65;11.38;;;;;;;;;;5038218;28;20087;-82
2022/01/13 10:25:36;;;;;;;17.80;13.25;;;;;;;;;;5059768;28;20223;-82
2022/01/13 10:28:12;;;;;;;15.73;12.50;;;;;;;;;;5034639;28;20069;-83
2022/01/13 10:30:39;;;;;;;15.73;12.10;;;;;;;;;;5066448;28;20062;-82
2022/01/13 10:33:22;;;;;;;13.45;10.75;;;;;;;;;;5053098;28;20056;-82
2022/01/13 10:35:51;;;;;;;16.23;10.90;;;;;;;;;;5043031;28;20049;-83
2022/01/13 10:38:20;;;;;;;16.40;11.68;;;;;;;;;;5042756;28;20068;-83
2022/01/13 10:40:49;;;;;;;17.15;12.25;;;;;;;;;;5034651;28;20041;-84
2022/01/13 10:43:22;;;;;;;19.00;12.32;;;;;;;;;;5037703;28;20052;-83
2022/01/13 10:45:54;;;;;;;16.98;13.07;;;;;;;;;;5034178;28;20040;-76
2022/01/13 10:48:27;;;;;;;22.08;13.55;;;;;;;;;;5038586;28;20076;-80
2022/01/13 10:50:55;;;;;;;20.92;13.63;;;;;;;;;;5037770;28;20132;-81
2022/01/13 10:53:25;;;;;;;19.38;13.23;;;;;;;;;;5063134;28;20140;-79
2022/01/13 10:55:57;;;;;;;17.17;13.70;;;;;;;;;;5055798;28;20140;-84
2022/01/13 10:58:51;;;;;;;19.75;14.25;;;;;;;;;;5045775;28;20053;-84
2022/01/13 11:01:21;;;;;;;22.27;15.00;;;;;;;;;;5059743;28;20072;-85
2022/01/13 11:03:48;;;;;;;17.02;14.60;;;;;;;;;;5069853;28;20044;-82
2022/01/13 11:06:15;;;;;;;22.77;15.77;;;;;;;;;;5070910;28;20056;-83
2022/01/13 11:08:47;;;;;;;16.70;14.27;;;;;;;;;;5037615;28;20136;-82
2022/01/13 11:11:27;;;;;;;19.75;13.52;;;;;;;;;;5025453;28;20052;-82
2022/01/13 11:13:56;;;;;;;20.08;15.65;;;;;;;;;;5037281;28;20091;-82
2022/01/13 11:16:24;;;;;;;20.13;15.23;;;;;;;;;;5061569;28;20435;-83
2022/01/13 11:18:52;;;;;;;22.88;16.17;;;;;;;;;;5056046;28;20065;-77
2022/01/13 11:21:19;;;;;;;20.95;15.65;;;;;;;;;;5040130;28;20135;-80
2022/01/13 11:23:49;;;;;;;24.88;17.52;;;;;;;;;;5054306;28;20053;-82
2022/01/13 11:26:17;;;;;;;22.58;16.88;;;;;;;;;;5036075;28;20048;-76
2022/01/13 11:28:44;;;;;;;23.30;15.88;;;;;;;;;;5056654;28;20524;-82
2022/01/13 11:31:12;;;;;;;20.85;16.60;;;;;;;;;;5056485;28;20048;-82
2022/01/13 11:33:39;;;;;;;24.95;18.75;;;;;;;;;;5073375;28;20057;-78
2022/01/13 11:36:07;;;;;;;27.40;17.70;;;;;;;;;;5050753;28;20462;-77
2022/01/13 11:38:35;;;;;;;22.13;17.35;;;;;;;;;;5079797;28;20057;-77
2022/01/13 11:41:04;;;;;;;26.05;17.58;;;;;;;;;;5051766;28;20471;-76
2022/01/13 11:43:42;;;;;;;21.25;16.30;;;;;;;;;;5065432;28;20083;-76
2022/01/13 11:46:24;;;;;;;22.00;16.17;;;;;;;;;;5067140;28;20501;-75
2022/01/13 11:49:07;;;;;;;21.55;16.30;;;;;;;;;;5076961;28;20098;-74
2022/01/13 11:51:56;;;;;;;18.27;15.27;;;;;;;;;;5048151;28;20041;-75
2022/01/13 11:54:34;;;;;;;26.30;15.68;;;;;;;;;;5047066;28;20053;-76
2022/01/13 11:57:25;;;;;;;19.73;15.10;;;;;;;;;;5056742;28;20052;-77
2022/01/13 11:59:58;;;;;;;21.67;16.42;;;;;;;;;;5067592;28;20140;-74
2022/01/13 12:02:54;;;;;;;26.42;17.15;;;;;;;;;;5058989;28;20132;-79
2022/01/13 12:05:24;;;;;;;19.98;15.13;;;;;;;;;;5071985;28;20053;-77
2022/01/13 12:07:56;;;;;;;21.58;15.20;;;;;;;;;;5048907;28;20048;-77
2022/01/13 12:10:23;;;;;;;18.13;14.80;;;;;;;;;;5034256;28;20045;-78
2022/01/13 12:12:51;;;;;;;18.02;15.35;;;;;;;;;;5060396;28;20045;-77
2022/01/13 12:15:24;;;;;;;22.42;15.80;;;;;;;;;;5044723;28;20040;-77
2022/01/13 12:17:56;;;;;;;20.35;15.57;;;;;;;;;;5050109;28;20052;-77
2022/01/13 12:20:51;;;;;;;20.48;15.07;;;;;;;;;;5034650;28;20138;-77
2022/01/13 12:23:40;;;;;;;22.67;16.08;;;;;;;;;;5054240;28;20037;-84
2022/01/13 12:26:32;;;;;;;20.80;15.43;;;;;;;;;;5071524;28;20063;-85
2022/01/13 12:29:12;;;;;;;23.10;15.98;;;;;;;;;;5060071;28;20044;-82
2022/01/13 12:31:51;;;;;;;23.92;17.67;;;;;;;;;;5044799;28;20516;-84
2022/01/13 12:34:33;;;;;;;31.27;16.63;;;;;;;;;;5062517;28;20041;-81
2022/01/13 12:37:19;;;;;;;22.90;16.48;;;;;;;;;;5063096;28;20087;-83
2022/01/13 12:39:58;;;;;;;20.35;17.48;;;;;;;;;;5061820;28;20059;-82
2022/01/13 12:42:51;;;;;;;24.35;17.35;;;;;;;;;;5045862;28;20052;-76
2022/01/13 12:45:28;;;;;;;21.15;16.45;;;;;;;;;;5053857;28;20044;-77
2022/01/13 12:47:59;;;;;;;27.17;18.95;;;;;;;;;;5059950;28;20056;-81
2022/01/13 12:50:28;;;;;;;26.75;19.25;;;;;;;;;;5047506;28;20052;-80
2022/01/13 12:53:12;;;;;;;22.65;18.50;;;;;;;;;;5041633;28;20064;-81
2022/01/13 12:55:45;;;;;;;31.65;19.90;;;;;;;;;;5041999;28;20055;-81
2022/01/13 12:58:12;;;;;;;25.10;18.30;;;;;;;;;;5020307;28;20065;-81
2022/01/13 13:00:58;;;;;;;22.98;19.85;;;;;;;;;;5067833;28;20052;-81
2022/01/13 13:03:26;;;;;;;21.65;16.45;;;;;;;;;;5052861;28;20544;-79
2022/01/13 13:05:54;;;;;;;25.80;16.67;;;;;;;;;;5067116;28;20070;-78
2022/01/13 13:08:23;;;;;;;20.77;17.63;;;;;;;;;;5034072;28;20148;-78
2022/01/13 13:10:59;;;;;;;20.52;16.70;;;;;;;;;;5045562;28;20487;-79
2022/01/13 13:13:33;;;;;;;22.20;16.25;;;;;;;;;;5051409;28;20111;-77
2022/01/13 13:16:03;;;;;;;24.77;17.13;;;;;;;;;;5044526;28;20051;-74
2022/01/13 13:18:31;;;;;;;22.42;15.55;;;;;;;;;;5066991;28;20067;-80
2022/01/13 13:21:00;;;;;;;21.63;16.48;;;;;;;;;;5063500;28;20057;-74
2022/01/13 13:23:31;;;;;;;19.00;15.57;;;;;;;;;;5036622;28;20467;-74
2022/01/13 13:26:18;;;;;;;29.23;17.67;;;;;;;;;;5053364;28;20044;-74
2022/01/13 13:28:51;;;;;;;20.92;16.20;;;;;;;;;;5053426;28;20055;-77
2022/01/13 13:31:24;;;;;;;26.23;17.75;;;;;;;;;;5070554;28;20057;-83
2022/01/13 13:34:04;;;;;;;24.50;17.70;;;;;;;;;;5054593;28;20159;-76
2022/01/13 13:36:36;;;;;;;28.48;17.95;;;;;;;;;;5054005;28;20052;-76
2022/01/13 13:39:09;;;;;;;19.70;16.35;;;;;;;;;;5054470;28;20099;-76
2022/01/13 13:41:43;;;;;;;19.73;17.10;;;;;;;;;;5054290;28;20142;-76
2022/01/13 13:44:15;;;;;;;22.23;17.42;;;;;;;;;;5057772;28;20061;-75
2022/01/13 13:47:06;;;;;;;23.42;16.98;;;;;;;;;;5024878;28;20057;-76
2022/01/13 13:49:34;;;;;;;21.55;16.85;;;;;;;;;;5037477;28;20055;-76
2022/01/13 13:52:07;;;;;;;21.27;16.55;;;;;;;;;;5018974;28;20485;-77
2022/01/13 13:54:42;;;;;;;24.67;17.30;;;;;;;;;;5033043;28;20048;-76
2022/01/13 13:57:13;;;;;;;;;;;;;;;;;;5036196;28;20048;-79
2022/01/13 13:59:51;;;;;;;18.55;14.10;;;;;;;;;;5063230;28;19921;-75
2022/01/13 14:02:31;;;;;;;19.05;15.05;;;;;;;;;;5071759;28;20527;-76
2022/01/13 14:05:10;;;;;;;16.63;14.32;;;;;;;;;;5021590;28;20048;-74
2022/01/13 14:07:41;;;;;;;17.92;15.02;;;;;;;;;;5053093;28;20135;-75
2022/01/13 14:10:17;;;;;;;17.98;15.10;;;;;;;;;;5038923;28;20052;-74
2022/01/13 14:12:46;;;;;;;18.98;16.40;;;;;;;;;;5070671;28;20044;-74
2022/01/13 14:15:40;;;;;;;20.10;17.65;;;;;;;;;;5063117;28;20071;-75
2022/01/13 14:18:07;;;;;;;21.23;16.88;;;;;;;;;;5052925;28;20106;-74
2022/01/13 14:20:48;;;;;;;21.35;17.05;;;;;;;;;;5069972;28;20063;-75
2022/01/13 14:23:19;;;;;;;24.40;19.23;;;;;;;;;;5056355;28;20071;-74
2022/01/13 14:25:49;;;;;;;21.23;17.42;;;;;;;;;;5052596;28;20056;-74
2022/01/13 14:28:19;;;;;;;18.40;14.90;;;;;;;;;;5046928;28;20154;-74
2022/01/13 14:30:47;;;;;;;22.95;16.25;;;;;;;;;;5051633;28;20515;-74
2022/01/13 14:33:22;;;;;;;19.95;15.77;;;;;;;;;;5033182;28;20048;-74
2022/01/13 14:36:04;;;;;;;21.30;17.92;;;;;;;;;;5051146;28;20077;-75
2022/01/13 14:38:36;;;;;;;18.67;16.20;;;;;;;;;;5051254;28;20090;-75
2022/01/13 14:41:04;;;;;;;24.27;17.92;;;;;;;;;;5055609;28;20126;-74
2022/01/13 14:43:32;;;;;;;26.92;16.75;;;;;;;;;;5067346;28;20056;-74
2022/01/13 14:46:03;;;;;;;28.48;19.13;;;;;;;;;;5041221;28;20041;-74
2022/01/13 14:48:31;;;;;;;29.25;20.80;;;;;;;;;;5039636;28;20574;-74
2022/01/13 14:51:26;;;;;;;24.58;17.70;;;;;;;;;;5034163;28;20139;-73
2022/01/13 14:53:53;;;;;;;25.92;18.30;;;;;;;;;;5052628;28;20120;-74
2022/01/13 14:56:21;;;;;;;21.55;17.35;;;;;;;;;;5042336;28;20067;-74
2022/01/13 14:58:49;;;;;;;22.52;16.92;;;;;;;;;;5033285;28;20110;-74
2022/01/13 15:01:16;;;;;;;28.33;17.33;;;;;;;;;;5032733;28;20048;-74
2022/01/13 15:03:44;;;;;;;24.13;17.25;;;;;;;;;;5033732;28;20600;-74
2022/01/13 15:06:12;;;;;;;25.58;19.75;;;;;;;;;;5065727;28;20123;-74
2022/01/13 15:08:40;;;;;;;22.05;18.48;;;;;;;;;;5032828;28;20045;-74
2022/01/13 15:11:08;;;;;;;28.52;19.20;;;;;;;;;;5048044;28;20045;-74
2022/01/13 15:13:35;;;;;;;22.67;19.08;;;;;;;;;;5049728;28;20044;-74
2022/01/13 15:16:03;;;;;;;24.40;21.70;;;;;;;;;;5034074;28;20504;-74
2022/01/13 15:18:30;;;;;;;28.63;23.13;;;;;;;;;;5033432;28;20107;-74